AirNav   Pilot Hours Calculator
 
 555 users online  

12FA Niazi Heliport
Merritt Island, Florida, USA

GOING TO MERRITT ISLAND?


FAA INFORMATION EFFECTIVE 02 JANUARY 2020

Location

FAA Identifier: 12FA
Lat/Long: 28-16-46.4900N 080-40-25.6200W
28-16.774833N 080-40.427000W
28.2795806,-80.6737833
(estimated)
Elevation: 14 ft. / 4 m
From city: 2 miles SSW of MERRITT ISLAND, FL
Time zone: UTC -5 (UTC -4 during Daylight Saving Time)
Zip code: 32955

Heliport Operations

Heliport use: Private use. Permission required prior to landing
Activation date: 09/2017
Control tower: no
ARTCC: JACKSONVILLE CENTER
FSS: SAINT PETERSBURG FLIGHT SERVICE STATION
Attendance: 
Wind indicator: yes
Segmented circle: yes

Heliport Communications

WX AWOS-3 at COI (4 nm N): 119.025 (321-986-8864)
WX ASOS at MLB (11 nm S): PHONE 321-951-7575
WX AWOS-3PT at TIX (16 nm NW): 120.625 (321-567-6090)

Nearby radio navigation aids

VOR radial/distance  VOR name  Freq  Var
MLBr356/10.7MELBOURNE VOR/DME110.0007W
TRVr352/37.4TREASURE VORTAC117.3007W
ORLr114/38.3ORLANDO VORTAC112.2000E

Heliport Services

Runway Information

Helipad H1

Dimensions: 36 x 32 ft. / 11 x 10 m
Surface: wood, in fair condition
Latitude: 28-16.774833N
Longitude: 080-40.427000W
Elevation: 14.0 ft.
Traffic pattern: leftleft

Heliport Ownership and Management from official FAA records

Ownership: Privately-owned
Owner: WASIM NIAZI
4405 STILLWATER DRIVE
MERRITT ISLAND, FL 32952
Phone 321-446-2023
Manager: WASIM NIAZI
4405 STILLWATER DRIVE
MERRITT ISLAND, FL 32952
Phone 321-446-2023

Additional Remarks

FOR CD CTC ORLANDO APCH AT 407-852-7553

Instrument Procedures

There are no published instrument procedures at 12FA.

Some nearby airports with instrument procedures:

KCOI - Merritt Island Airport (4 nm N)
KCOF - Patrick Air Force Base (4 nm SE)
KMLB - Melbourne International Airport (11 nm S)
KXMR - Cape Canaveral Air Force Station Skid Strip (13 nm NE)
KTIX - Space Coast Regional Airport (16 nm NW)
 
Loc | Ops | Rwys | IFR | FBO | Links
Com | Nav | Svcs | Stats | Notes
Aerial photo
No photo
 
Airport distance calculator
Flying to Niazi Heliport? Find the distance to fly.

From to 12FA

Sunrise and sunset
Times for 19-Jan-2020
 Local
(UTC-5)
 Zulu
(UTC)
Morning civil twilight06:5111:51
Sunrise07:1612:16
Sunset17:5122:51
Evening civil twilight18:1623:16

Current date and time
Zulu (UTC)  19-Jan-2020 10:30:12
Local (UTC-5)  19-Jan-2020 05:30:12
 
METAR
KCOF 
6nm SE 
190956Z AUTO 20005KT 10SM CLR 18/18 A3013 RMK AO2 SLP207 T01800180 $
KMLB 
11nm S 
190953Z AUTO 20003KT 10SM BKN032 17/16 A3013 RMK AO2 SLP201 T01670156
KXMR 
13nm NE 
190956Z AUTO 21007KT 10SM CLR 18/16 A3011 RMK AO2 SLP199 T01800161 $
KTIX 
15nm N 
190146Z 18003KT 7SM SKC 19/15 A3025
TAF
KMLB 
11nm S 
190539Z 1906/2006 17005KT P6SM SCT035 FM191500 20009KT P6SM SCT040 SCT250 FM192100 29010KT P6SM BKN030 BKN250 FM200400 32011KT P6SM BKN025 BKN100
KTIX 
15nm N 
190539Z 1906/2006 18003KT P6SM BKN250 FM191500 20008KT P6SM SCT035 BKN250 FM192100 27009KT P6SM BKN030 BKN250 FM200200 32011KT P6SM BKN025 BKN100 AMD NOT SKED TIL 191200
NOTAMs
Click for the latest NOTAMs
NOTAMs are issued by the DoD/FAA and will open in a separate window not controlled by AirNav.

 

 
 

Would you like to see your business listed on this page?

 If your business provides an interesting product or service to pilots, flight crews, aircraft, or users of the Niazi Heliport, you should consider listing it here.  To start the listing process, click on the button below
 
Add a business
 

Other Pages about Niazi Heliport

Update a link
 
Copyright © AirNav, LLC. All rights reserved. Privacy Policy  Contact